sensor_id;sensor_type;location;lat;lon;timestamp;P1;durP1;ratioP1;P2;durP2;ratioP2
61739;SDS011;47645;45.288;12.038;2023-08-01T00:00:38;2.9;;;1.9;;
61739;SDS011;47645;45.288;12.038;2023-08-01T00:10:40;3.2;;;2.1;;
61739;SDS011;47645;45.288;12.038;2023-08-01T00:20:41;2.8;;;1.7;;
61739;SDS011;47645;45.288;12.038;2023-08-01T00:30:43;3.8;;;1.8;;
61739;SDS011;47645;45.288;12.038;2023-08-01T00:40:44;2.5;;;1.7;;
61739;SDS011;47645;45.288;12.038;2023-08-01T00:50:46;3.7;;;2.1;;
61739;SDS011;47645;45.288;12.038;2023-08-01T01:00:48;2.8;;;1.7;;
61739;SDS011;47645;45.288;12.038;2023-08-01T01:10:48;2.4;;;1.9;;
61739;SDS011;47645;45.288;12.038;2023-08-01T01:20:50;3.4;;;2.5;;
61739;SDS011;47645;45.288;12.038;2023-08-01T01:30:53;3.9;;;2.8;;
61739;SDS011;47645;45.288;12.038;2023-08-01T01:40:53;5.4;;;2.5;;
61739;SDS011;47645;45.288;12.038;2023-08-01T01:50:54;5.0;;;3.0;;
61739;SDS011;47645;45.288;12.038;2023-08-01T02:00:55;3.6;;;2.6;;
61739;SDS011;47645;45.288;12.038;2023-08-01T02:10:58;6.3;;;4.6;;
61739;SDS011;47645;45.288;12.038;2023-08-01T02:20:58;4.6;;;2.4;;
61739;SDS011;47645;45.288;12.038;2023-08-01T02:30:59;4.4;;;2.8;;
61739;SDS011;47645;45.288;12.038;2023-08-01T02:41:01;4.5;;;3.3;;
61739;SDS011;47645;45.288;12.038;2023-08-01T02:51:02;3.3;;;2.5;;
61739;SDS011;47645;45.288;12.038;2023-08-01T03:01:06;4.0;;;3.3;;
61739;SDS011;47645;45.288;12.038;2023-08-01T03:11:05;7.3;;;5.0;;
61739;SDS011;47645;45.288;12.038;2023-08-01T03:21:07;6.2;;;4.6;;
61739;SDS011;47645;45.288;12.038;2023-08-01T03:31:08;4.3;;;3.4;;
61739;SDS011;47645;45.288;12.038;2023-08-01T03:41:09;6.8;;;4.3;;
61739;SDS011;47645;45.288;12.038;2023-08-01T03:51:11;7.0;;;4.2;;
61739;SDS011;47645;45.288;12.038;2023-08-01T04:01:12;8.4;;;5.1;;
61739;SDS011;47645;45.288;12.038;2023-08-01T04:11:13;9.8;;;5.4;;
61739;SDS011;47645;45.288;12.038;2023-08-01T04:21:15;9.6;;;4.6;;
61739;SDS011;47645;45.288;12.038;2023-08-01T04:31:16;12.3;;;5.5;;
61739;SDS011;47645;45.288;12.038;2023-08-01T04:41:17;7.2;;;5.2;;
61739;SDS011;47645;45.288;12.038;2023-08-01T04:51:19;28.2;;;7.0;;
61739;SDS011;47645;45.288;12.038;2023-08-01T05:01:20;7.1;;;5.2;;
61739;SDS011;47645;45.288;12.038;2023-08-01T05:11:21;9.2;;;5.2;;
61739;SDS011;47645;45.288;12.038;2023-08-01T05:21:23;7.6;;;5.4;;
61739;SDS011;47645;45.288;12.038;2023-08-01T05:31:24;9.8;;;4.9;;
61739;SDS011;47645;45.288;12.038;2023-08-01T05:41:26;7.3;;;5.2;;
61739;SDS011;47645;45.288;12.038;2023-08-01T05:51:27;9.6;;;5.1;;
61739;SDS011;47645;45.288;12.038;2023-08-01T06:01:28;9.1;;;5.7;;
61739;SDS011;47645;45.288;12.038;2023-08-01T06:11:29;7.2;;;5.0;;
61739;SDS011;47645;45.288;12.038;2023-08-01T06:21:31;6.9;;;4.6;;
61739;SDS011;47645;45.288;12.038;2023-08-01T06:31:32;10.2;;;5.0;;
61739;SDS011;47645;45.288;12.038;2023-08-01T06:41:33;10.0;;;3.7;;
61739;SDS011;47645;45.288;12.038;2023-08-01T06:51:35;5.4;;;3.1;;
61739;SDS011;47645;45.288;12.038;2023-08-01T07:01:40;5.7;;;2.5;;
61739;SDS011;47645;45.288;12.038;2023-08-01T07:11:37;6.0;;;2.3;;
61739;SDS011;47645;45.288;12.038;2023-08-01T07:21:39;3.9;;;2.0;;
61739;SDS011;47645;45.288;12.038;2023-08-01T07:31:40;5.4;;;3.5;;
61739;SDS011;47645;45.288;12.038;2023-08-01T07:41:42;6.4;;;3.6;;
61739;SDS011;47645;45.288;12.038;2023-08-01T07:51:43;6.0;;;3.5;;
61739;SDS011;47645;45.288;12.038;2023-08-01T08:01:45;7.7;;;5.2;;
61739;SDS011;47645;45.288;12.038;2023-08-01T08:11:46;9.2;;;5.1;;
61739;SDS011;47645;45.288;12.038;2023-08-01T08:21:48;7.0;;;3.9;;
61739;SDS011;47645;45.288;12.038;2023-08-01T08:31:49;5.3;;;3.6;;
61739;SDS011;47645;45.288;12.038;2023-08-01T08:41:52;7.3;;;4.7;;
61739;SDS011;47645;45.288;12.038;2023-08-01T08:51:52;7.6;;;5.0;;
61739;SDS011;47645;45.288;12.038;2023-08-01T09:01:54;8.3;;;4.0;;
61739;SDS011;47645;45.288;12.038;2023-08-01T09:11:57;8.9;;;3.6;;
61739;SDS011;47645;45.288;12.038;2023-08-01T09:21:58;7.1;;;4.2;;
61739;SDS011;47645;45.288;12.038;2023-08-01T09:31:59;4.4;;;2.6;;
61739;SDS011;47645;45.288;12.038;2023-08-01T09:42:01;6.5;;;2.5;;
61739;SDS011;47645;45.288;12.038;2023-08-01T09:52:02;6.6;;;2.6;;
61739;SDS011;47645;45.288;12.038;2023-08-01T10:02:04;5.2;;;2.1;;
61739;SDS011;47645;45.288;12.038;2023-08-01T10:12:06;4.1;;;1.9;;
61739;SDS011;47645;45.288;12.038;2023-08-01T10:22:07;4.1;;;1.9;;
61739;SDS011;47645;45.288;12.038;2023-08-01T10:32:09;4.9;;;1.7;;
61739;SDS011;47645;45.288;12.038;2023-08-01T10:42:12;5.0;;;2.0;;
61739;SDS011;47645;45.288;12.038;2023-08-01T10:52:15;4.9;;;1.8;;
61739;SDS011;47645;45.288;12.038;2023-08-01T11:02:19;3.9;;;1.9;;
61739;SDS011;47645;45.288;12.038;2023-08-01T11:12:16;3.7;;;2.0;;
61739;SDS011;47645;45.288;12.038;2023-08-01T11:22:17;3.6;;;1.9;;
61739;SDS011;47645;45.288;12.038;2023-08-01T11:32:20;2.9;;;1.8;;
61739;SDS011;47645;45.288;12.038;2023-08-01T11:42:21;3.3;;;1.9;;
61739;SDS011;47645;45.288;12.038;2023-08-01T11:52:24;4.3;;;1.8;;
61739;SDS011;47645;45.288;12.038;2023-08-01T12:02:26;4.1;;;2.3;;
61739;SDS011;47645;45.288;12.038;2023-08-01T12:12:27;3.9;;;2.0;;
61739;SDS011;47645;45.288;12.038;2023-08-01T12:22:28;3.9;;;2.1;;
61739;SDS011;47645;45.288;12.038;2023-08-01T12:32:30;6.6;;;2.5;;
61739;SDS011;47645;45.288;12.038;2023-08-01T12:42:32;3.8;;;2.4;;
61739;SDS011;47645;45.288;12.038;2023-08-01T12:52:34;3.9;;;2.2;;
61739;SDS011;47645;45.288;12.038;2023-08-01T13:02:36;6.6;;;2.7;;
61739;SDS011;47645;45.288;12.038;2023-08-01T13:12:38;4.6;;;1.9;;
61739;SDS011;47645;45.288;12.038;2023-08-01T13:22:39;3.4;;;2.2;;
61739;SDS011;47645;45.288;12.038;2023-08-01T13:32:41;4.6;;;2.1;;
61739;SDS011;47645;45.288;12.038;2023-08-01T13:42:43;3.3;;;1.9;;
61739;SDS011;47645;45.288;12.038;2023-08-01T13:52:46;5.0;;;2.2;;
61739;SDS011;47645;45.288;12.038;2023-08-01T14:02:48;3.6;;;2.0;;
61739;SDS011;47645;45.288;12.038;2023-08-01T14:12:49;2.3;;;1.9;;
61739;SDS011;47645;45.288;12.038;2023-08-01T14:22:51;3.3;;;2.3;;
61739;SDS011;47645;45.288;12.038;2023-08-01T14:32:58;4.6;;;2.2;;
61739;SDS011;47645;45.288;12.038;2023-08-01T14:42:55;4.2;;;2.3;;
61739;SDS011;47645;45.288;12.038;2023-08-01T14:52:57;4.4;;;2.8;;
61739;SDS011;47645;45.288;12.038;2023-08-01T15:02:59;7.6;;;3.0;;
61739;SDS011;47645;45.288;12.038;2023-08-01T15:13:01;6.6;;;2.9;;
61739;SDS011;47645;45.288;12.038;2023-08-01T15:23:03;7.4;;;3.2;;
61739;SDS011;47645;45.288;12.038;2023-08-01T15:33:05;6.8;;;3.3;;
61739;SDS011;47645;45.288;12.038;2023-08-01T15:43:07;6.2;;;3.2;;
61739;SDS011;47645;45.288;12.038;2023-08-01T15:53:09;6.6;;;3.1;;
61739;SDS011;47645;45.288;12.038;2023-08-01T16:03:11;6.7;;;3.4;;
61739;SDS011;47645;45.288;12.038;2023-08-01T16:13:13;6.9;;;3.4;;
61739;SDS011;47645;45.288;12.038;2023-08-01T16:23:15;6.9;;;3.2;;
61739;SDS011;47645;45.288;12.038;2023-08-01T16:33:17;6.4;;;3.2;;
61739;SDS011;47645;45.288;12.038;2023-08-01T16:43:18;7.1;;;3.3;;
61739;SDS011;47645;45.288;12.038;2023-08-01T16:53:21;4.9;;;2.8;;
61739;SDS011;47645;45.288;12.038;2023-08-01T17:03:22;5.9;;;3.3;;
61739;SDS011;47645;45.288;12.038;2023-08-01T17:13:24;6.1;;;3.2;;
61739;SDS011;47645;45.288;12.038;2023-08-01T17:23:26;5.9;;;3.3;;
61739;SDS011;47645;45.288;12.038;2023-08-01T17:33:28;6.0;;;3.3;;
61739;SDS011;47645;45.288;12.038;2023-08-01T17:43:30;6.8;;;3.3;;
61739;SDS011;47645;45.288;12.038;2023-08-01T17:53:32;5.4;;;2.7;;
61739;SDS011;47645;45.288;12.038;2023-08-01T18:03:34;7.2;;;3.4;;
61739;SDS011;47645;45.288;12.038;2023-08-01T18:13:35;5.2;;;3.2;;
61739;SDS011;47645;45.288;12.038;2023-08-01T18:23:37;5.2;;;3.0;;
61739;SDS011;47645;45.288;12.038;2023-08-01T18:33:39;6.5;;;3.1;;
61739;SDS011;47645;45.288;12.038;2023-08-01T18:43:41;6.1;;;3.2;;
61739;SDS011;47645;45.288;12.038;2023-08-01T18:53:43;5.3;;;3.2;;
61739;SDS011;47645;45.288;12.038;2023-08-01T19:03:44;6.2;;;3.8;;
61739;SDS011;47645;45.288;12.038;2023-08-01T19:13:46;6.8;;;3.2;;
61739;SDS011;47645;45.288;12.038;2023-08-01T19:23:47;7.7;;;4.2;;
61739;SDS011;47645;45.288;12.038;2023-08-01T19:33:49;17.9;;;7.1;;
61739;SDS011;47645;45.288;12.038;2023-08-01T19:43:51;10.5;;;5.3;;
61739;SDS011;47645;45.288;12.038;2023-08-01T19:53:52;10.0;;;5.7;;
61739;SDS011;47645;45.288;12.038;2023-08-01T20:03:56;10.7;;;5.0;;
61739;SDS011;47645;45.288;12.038;2023-08-01T20:13:56;6.3;;;3.9;;
61739;SDS011;47645;45.288;12.038;2023-08-01T20:23:57;7.4;;;3.1;;
61739;SDS011;47645;45.288;12.038;2023-08-01T20:33:59;6.5;;;3.7;;
61739;SDS011;47645;45.288;12.038;2023-08-01T20:44:00;6.1;;;3.0;;
61739;SDS011;47645;45.288;12.038;2023-08-01T20:54:02;3.7;;;2.2;;
61739;SDS011;47645;45.288;12.038;2023-08-01T21:04:03;3.3;;;1.8;;
61739;SDS011;47645;45.288;12.038;2023-08-01T21:14:05;3.9;;;2.1;;
61739;SDS011;47645;45.288;12.038;2023-08-01T21:24:07;5.1;;;2.5;;
61739;SDS011;47645;45.288;12.038;2023-08-01T21:34:08;4.4;;;2.7;;
61739;SDS011;47645;45.288;12.038;2023-08-01T21:44:10;5.8;;;3.0;;
61739;SDS011;47645;45.288;12.038;2023-08-01T21:54:11;5.6;;;2.6;;
61739;SDS011;47645;45.288;12.038;2023-08-01T22:04:13;3.4;;;2.1;;
61739;SDS011;47645;45.288;12.038;2023-08-01T22:14:14;4.8;;;2.3;;
61739;SDS011;47645;45.288;12.038;2023-08-01T22:24:16;4.6;;;1.9;;
61739;SDS011;47645;45.288;12.038;2023-08-01T22:34:17;2.8;;;1.8;;
61739;SDS011;47645;45.288;12.038;2023-08-01T22:44:19;3.4;;;2.0;;
61739;SDS011;47645;45.288;12.038;2023-08-01T22:54:20;3.9;;;1.6;;
61739;SDS011;47645;45.288;12.038;2023-08-01T23:04:21;4.1;;;1.9;;
61739;SDS011;47645;45.288;12.038;2023-08-01T23:14:23;4.0;;;2.0;;
61739;SDS011;47645;45.288;12.038;2023-08-01T23:24:24;5.7;;;2.5;;
61739;SDS011;47645;45.288;12.038;2023-08-01T23:34:26;5.5;;;2.3;;
61739;SDS011;47645;45.288;12.038;2023-08-01T23:44:29;4.1;;;2.1;;
61739;SDS011;47645;45.288;12.038;2023-08-01T23:54:29;4.7;;;2.3;;
